Time;durP1;ratioP1;P1;durP2;ratioP2;P2;SDS_P1;SDS_P2;PMS_P1;PMS_P2;Temp;Humidity;BMP_temperature;BMP_pressure;BME280_temperature;BME280_humidity;BME280_pressure;Samples;Min_cycle;Max_cycle;Signal;HPM_P1;HPM_P2
2021/05/07 00:01:29;;;;;;;15.20;9.00;;;5.50;88.60;;;;;;5015898;28;20490;-88
2021/05/07 00:03:55;;;;;;;19.67;9.40;;;5.40;88.50;;;;;;4982753;28;20026;-88
2021/05/07 00:06:20;;;;;;;15.63;9.47;;;5.40;88.40;;;;;;4982738;28;20470;-87
2021/05/07 00:08:46;;;;;;;16.53;8.40;;;5.30;88.50;;;;;;4998818;28;20062;-88
2021/05/07 00:11:14;;;;;;;17.83;8.40;;;5.30;88.20;;;;;;4982337;28;20050;-87
2021/05/07 00:13:41;;;;;;;14.27;8.87;;;5.30;88.20;;;;;;5000358;28;20028;-88
2021/05/07 00:16:07;;;;;;;13.73;8.67;;;5.30;88.30;;;;;;4999596;28;20088;-87
2021/05/07 00:18:33;;;;;;;13.90;8.20;;;5.30;88.30;;;;;;4999727;28;20463;-88
2021/05/07 00:21:00;;;;;;;12.03;8.60;;;5.30;88.30;;;;;;4967499;28;20084;-85
2021/05/07 00:23:25;;;;;;;16.20;9.77;;;5.30;88.30;;;;;;4997325;28;20065;-87
2021/05/07 00:25:52;;;;;;;14.57;9.53;;;5.30;88.30;;;;;;4996161;28;20066;-89
2021/05/07 00:28:19;;;;;;;14.80;8.27;;;5.30;88.50;;;;;;4996518;28;20018;-89
2021/05/07 00:30:45;;;;;;;16.10;9.47;;;5.20;88.60;;;;;;4980541;28;20068;-90
2021/05/07 00:33:11;;;;;;;13.27;8.03;;;5.10;88.50;;;;;;4997523;28;20029;-89
2021/05/07 00:35:37;;;;;;;18.03;8.47;;;5.20;88.80;;;;;;4995721;28;20023;-88
2021/05/07 00:38:04;;;;;;;12.90;7.73;;;5.20;89.10;;;;;;4980098;28;20028;-89
2021/05/07 00:40:30;;;;;;;11.90;7.93;;;5.10;88.50;;;;;;4997340;28;20114;-89
2021/05/07 00:42:56;;;;;;;18.20;8.27;;;5.10;88.50;;;;;;4996047;28;20061;-90
2021/05/07 00:45:22;;;;;;;14.70;8.90;;;5.10;88.60;;;;;;4995689;28;20048;-89
2021/05/07 00:48:01;;;;;;;16.13;8.83;;;5.10;88.70;;;;;;4995906;28;20452;-88
2021/05/07 00:50:28;;;;;;;15.67;9.50;;;5.00;88.70;;;;;;4996858;28;20033;-89
2021/05/07 00:52:58;;;;;;;14.90;8.60;;;5.00;88.60;;;;;;4979818;28;20027;-88
2021/05/07 00:55:25;;;;;;;16.07;8.40;;;4.90;88.80;;;;;;4995686;28;20030;-88
2021/05/07 00:57:51;;;;;;;15.77;8.30;;;4.90;88.80;;;;;;4995572;28;20109;-88
2021/05/07 01:00:18;;;;;;;15.13;8.90;;;4.90;88.90;;;;;;4995645;28;20463;-88
2021/05/07 01:02:43;;;;;;;14.23;8.80;;;4.90;88.90;;;;;;4978751;28;20038;-87
2021/05/07 01:05:10;;;;;;;13.33;8.83;;;4.90;89.00;;;;;;4978705;28;20038;-87
2021/05/07 01:07:36;;;;;;;17.90;9.87;;;4.90;89.10;;;;;;4995332;28;20034;-87
2021/05/07 01:10:05;;;;;;;15.80;8.90;;;4.90;89.10;;;;;;4995068;28;20443;-88
2021/05/07 01:12:32;;;;;;;15.90;8.63;;;4.90;89.20;;;;;;4978693;28;20491;-87
2021/05/07 01:15:14;;;;;;;14.07;8.70;;;4.80;89.20;;;;;;4978613;28;20019;-87
2021/05/07 01:17:44;;;;;;;12.47;8.10;;;4.80;89.20;;;;;;4995229;28;20026;-87
2021/05/07 01:20:15;;;;;;;17.33;8.63;;;4.80;89.90;;;;;;4995695;28;20475;-87
2021/05/07 01:22:42;;;;;;;15.07;8.73;;;4.70;89.40;;;;;;4994842;28;20042;-87
2021/05/07 01:25:10;;;;;;;16.37;9.30;;;4.70;89.70;;;;;;4995145;28;20475;-87
2021/05/07 01:27:41;;;;;;;16.10;9.03;;;4.70;89.70;;;;;;4994409;28;20113;-87
2021/05/07 01:30:11;;;;;;;14.10;8.20;;;4.60;89.70;;;;;;4995964;28;20029;-86
2021/05/07 01:32:38;;;;;;;15.27;8.63;;;4.60;89.70;;;;;;4995448;28;20033;-88
2021/05/07 01:35:13;;;;;;;16.80;9.43;;;4.60;89.80;;;;;;4978207;28;20053;-87
2021/05/07 01:37:39;;;;;;;13.20;9.27;;;4.60;89.80;;;;;;4988958;28;20419;-87
2021/05/07 01:40:16;;;;;;;17.77;8.93;;;4.50;89.90;;;;;;4996972;28;20034;-86
2021/05/07 01:42:41;;;;;;;13.97;8.30;;;4.50;89.90;;;;;;4995430;28;20402;-87
2021/05/07 01:45:08;;;;;;;15.40;9.77;;;4.50;89.90;;;;;;4995852;28;20041;-88
2021/05/07 01:47:34;;;;;;;15.87;8.10;;;4.50;90.00;;;;;;4995730;28;20026;-85
2021/05/07 01:50:00;;;;;;;18.10;9.10;;;4.40;90.00;;;;;;4994681;28;20010;-87
2021/05/07 01:52:26;;;;;;;14.43;9.80;;;4.40;90.00;;;;;;4978864;28;20081;-87
2021/05/07 01:54:52;;;;;;;17.37;10.10;;;4.40;90.10;;;;;;4996774;28;20072;-88
2021/05/07 01:57:18;;;;;;;16.27;9.23;;;4.40;90.10;;;;;;4978898;28;20022;-88
2021/05/07 01:59:43;;;;;;;17.93;9.77;;;4.40;90.20;;;;;;4995546;28;20022;-87
2021/05/07 02:02:09;;;;;;;17.13;9.10;;;4.40;90.50;;;;;;4993899;28;20039;-85
2021/05/07 02:04:35;;;;;;;16.87;9.67;;;4.30;90.20;;;;;;4961904;28;20026;-87
2021/05/07 02:07:00;;;;;;;14.27;9.57;;;4.30;90.30;;;;;;4978332;28;20122;-86
2021/05/07 02:09:26;;;;;;;18.30;9.20;;;4.30;90.40;;;;;;4993650;28;20153;-87
2021/05/07 02:11:52;;;;;;;13.67;8.70;;;4.40;90.50;;;;;;4977391;28;20128;-88
2021/05/07 02:14:17;;;;;;;15.07;9.53;;;4.30;90.50;;;;;;4993892;28;20057;-85
2021/05/07 02:16:43;;;;;;;14.67;10.43;;;4.40;90.50;;;;;;4961296;28;20022;-85
2021/05/07 02:19:09;;;;;;;13.40;9.13;;;4.40;90.50;;;;;;4993623;28;20474;-86
2021/05/07 02:21:35;;;;;;;18.13;10.20;;;4.40;90.60;;;;;;4993507;28;20039;-85
2021/05/07 02:24:01;;;;;;;16.30;9.30;;;4.40;90.60;;;;;;4976915;28;20069;-86
2021/05/07 02:26:27;;;;;;;14.87;9.80;;;4.30;90.60;;;;;;4994177;28;20023;-87
2021/05/07 02:28:52;;;;;;;17.90;9.93;;;4.40;90.70;;;;;;4977537;28;20030;-86
2021/05/07 02:31:18;;;;;;;14.33;9.20;;;4.50;90.80;;;;;;4977368;28;20117;-87
2021/05/07 02:33:43;;;;;;;14.37;9.63;;;4.50;90.90;;;;;;4976626;28;20022;-87
2021/05/07 02:36:09;;;;;;;17.10;9.87;;;4.60;90.90;;;;;;4993065;28;20053;-86
2021/05/07 02:38:37;;;;;;;16.10;9.20;;;4.60;90.80;;;;;;4992955;28;20068;-86
2021/05/07 02:41:03;;;;;;;15.40;8.90;;;4.60;90.90;;;;;;4994575;28;20023;-86
2021/05/07 02:43:30;;;;;;;15.77;9.50;;;4.60;90.90;;;;;;4994247;28;20037;-86
2021/05/07 02:45:55;;;;;;;16.23;10.23;;;4.60;91.00;;;;;;4976060;28;20076;-85
2021/05/07 02:48:21;;;;;;;19.87;10.90;;;4.70;91.10;;;;;;4993283;28;20018;-85
2021/05/07 02:50:47;;;;;;;17.80;10.90;;;4.70;91.10;;;;;;4960836;28;20030;-86
2021/05/07 02:53:13;;;;;;;17.10;11.00;;;4.70;91.10;;;;;;4994084;28;20043;-86
2021/05/07 02:55:38;;;;;;;15.97;10.10;;;4.80;91.10;;;;;;4977391;28;20030;-86
2021/05/07 02:58:04;;;;;;;17.27;10.73;;;4.80;91.10;;;;;;4993508;28;20384;-86
2021/05/07 03:00:30;;;;;;;16.20;10.63;;;4.90;91.20;;;;;;4993115;28;20121;-86
2021/05/07 03:02:56;;;;;;;16.17;10.03;;;4.90;91.10;;;;;;4994116;28;20488;-84
2021/05/07 03:05:21;;;;;;;18.53;11.57;;;4.90;91.10;;;;;;4993738;28;20033;-84
2021/05/07 03:07:47;;;;;;;18.37;10.60;;;5.00;91.10;;;;;;4993594;28;20030;-84
2021/05/07 03:10:13;;;;;;;18.87;10.47;;;5.00;91.20;;;;;;4993702;28;20069;-83
2021/05/07 03:12:38;;;;;;;17.90;11.30;;;5.00;91.10;;;;;;4992646;28;20028;-87
2021/05/07 03:15:05;;;;;;;17.83;11.17;;;5.00;91.10;;;;;;4993287;28;20022;-86
2021/05/07 03:17:31;;;;;;;20.77;11.23;;;5.00;91.10;;;;;;4976861;28;20030;-85
2021/05/07 03:19:57;;;;;;;20.17;12.30;;;5.00;91.10;;;;;;4992711;28;20027;-86
2021/05/07 03:22:22;;;;;;;19.70;12.37;;;5.10;91.10;;;;;;4994580;28;20038;-89
2021/05/07 03:24:48;;;;;;;20.23;12.33;;;5.20;91.20;;;;;;4993801;28;20493;-87
2021/05/07 03:27:14;;;;;;;17.83;12.00;;;5.20;91.10;;;;;;4976973;28;20551;-87
2021/05/07 03:29:39;;;;;;;17.57;12.23;;;5.20;91.10;;;;;;4976606;28;20027;-86
2021/05/07 03:32:05;;;;;;;20.50;13.20;;;5.20;91.20;;;;;;4994332;28;20132;-87
2021/05/07 03:34:31;;;;;;;21.13;12.30;;;5.10;91.10;;;;;;4992499;28;20026;-87
2021/05/07 03:36:57;;;;;;;16.03;12.00;;;5.20;91.10;;;;;;4993196;28;20459;-86
2021/05/07 03:39:23;;;;;;;19.30;13.07;;;5.10;91.00;;;;;;4960543;28;20019;-85
2021/05/07 03:41:48;;;;;;;17.17;12.63;;;5.10;91.00;;;;;;4993010;28;20026;-86
2021/05/07 03:44:14;;;;;;;21.20;13.10;;;5.10;91.00;;;;;;4992789;28;20015;-87
2021/05/07 03:46:39;;;;;;;19.30;12.50;;;5.10;91.00;;;;;;4993511;28;20367;-86
2021/05/07 03:49:05;;;;;;;17.43;11.57;;;5.10;91.00;;;;;;4993096;28;20225;-86
2021/05/07 03:51:31;;;;;;;18.47;12.43;;;5.10;91.00;;;;;;4994147;28;20026;-89
2021/05/07 03:53:56;;;;;;;19.20;13.30;;;5.10;91.00;;;;;;4977528;28;20030;-89
2021/05/07 03:56:22;;;;;;;20.57;14.03;;;5.10;91.10;;;;;;4995584;28;20069;-89
2021/05/07 03:58:47;;;;;;;18.73;13.03;;;5.10;91.20;;;;;;4996991;28;20036;-88
2021/05/07 04:01:13;;;;;;;17.60;12.67;;;5.20;91.20;;;;;;5003313;28;20069;-87
2021/05/07 04:03:38;;;;;;;18.00;12.13;;;5.20;91.20;;;;;;5014685;28;20030;-87
2021/05/07 04:06:07;;;;;;;18.70;12.90;;;5.30;91.20;;;;;;5015943;28;20113;-86
2021/05/07 04:08:35;;;;;;;11.03;6.50;;;5.30;91.20;;;;;;5000091;28;20032;-88
2021/05/07 04:11:10;;;;;;;18.00;9.83;;;5.30;91.10;;;;;;5017520;28;20038;-88
2021/05/07 04:13:43;;;;;;;17.97;11.03;;;5.30;91.10;;;;;;5016707;28;20493;-89
2021/05/07 04:16:09;;;;;;;17.97;11.63;;;5.40;91.20;;;;;;5015652;28;20022;-87
2021/05/07 04:18:35;;;;;;;18.37;13.07;;;5.30;91.50;;;;;;5019770;28;20030;-88
2021/05/07 04:21:02;;;;;;;17.70;11.03;;;5.30;91.40;;;;;;5016855;28;20054;-90
2021/05/07 04:23:28;;;;;;;14.40;8.13;;;5.30;91.50;;;;;;5016028;28;20084;-88
2021/05/07 04:25:54;;;;;;;9.40;5.63;;;5.20;91.40;;;;;;5017448;28;20474;-88
2021/05/07 04:28:20;;;;;;;9.83;5.07;;;5.20;91.20;;;;;;5016782;28;20029;-88
2021/05/07 04:30:47;;;;;;;8.23;4.20;;;5.10;91.10;;;;;;5016554;28;20485;-85
2021/05/07 04:33:12;;;;;;;6.43;3.57;;;5.10;91.10;;;;;;5016512;28;20022;-86
2021/05/07 04:35:38;;;;;;;5.70;3.10;;;5.10;91.00;;;;;;5018731;28;20026;-85
2021/05/07 04:38:04;;;;;;;6.23;2.80;;;5.00;90.90;;;;;;5016279;28;20065;-87
2021/05/07 04:40:31;;;;;;;8.80;2.63;;;5.00;90.90;;;;;;5016862;28;20046;-89
2021/05/07 04:43:01;;;;;;;5.63;2.57;;;4.90;90.80;;;;;;5020945;28;20080;-92
2021/05/07 04:45:27;;;;;;;5.43;2.40;;;4.90;90.80;;;;;;5029464;28;20033;-87
2021/05/07 04:47:53;;;;;;;8.50;3.03;;;4.80;90.80;;;;;;5004409;28;20018;-92
2021/05/07 04:50:19;;;;;;;6.97;2.40;;;4.80;90.80;;;;;;5016685;28;20121;-91
2021/05/07 04:52:45;;;;;;;5.70;2.60;;;4.80;90.80;;;;;;4981918;28;20056;-89
2021/05/07 04:55:11;;;;;;;6.37;2.80;;;4.80;90.80;;;;;;4995065;28;20549;-88
2021/05/07 04:57:36;;;;;;;7.40;3.00;;;4.80;90.70;;;;;;4996922;28;20048;-88
2021/05/07 05:00:04;;;;;;;5.97;3.27;;;4.80;90.80;;;;;;4994716;28;20034;-88
2021/05/07 05:02:29;;;;;;;7.03;3.50;;;4.80;90.90;;;;;;4996956;28;20042;-90
2021/05/07 05:04:56;;;;;;;6.90;3.13;;;4.80;90.90;;;;;;5012745;28;20030;-90
2021/05/07 05:07:22;;;;;;;6.17;3.50;;;4.90;90.80;;;;;;4997585;28;20018;-92
2021/05/07 05:09:47;;;;;;;6.90;3.23;;;4.90;90.90;;;;;;4998619;28;20064;-92
2021/05/07 05:12:13;;;;;;;7.47;3.10;;;5.00;91.10;;;;;;5001225;28;20036;-92
2021/05/07 05:14:38;;;;;;;8.43;3.40;;;5.00;91.10;;;;;;4997892;28;20022;-90
2021/05/07 05:17:04;;;;;;;5.73;3.07;;;5.00;91.00;;;;;;5013921;28;20034;-90
2021/05/07 05:19:30;;;;;;;5.77;2.87;;;4.90;90.80;;;;;;5014605;28;20044;-90
2021/05/07 05:21:55;;;;;;;7.03;2.80;;;5.00;90.80;;;;;;4999397;28;20065;-92
2021/05/07 05:24:21;;;;;;;7.10;3.03;;;5.10;90.70;;;;;;5014533;28;20683;-88
2021/05/07 05:26:47;;;;;;;5.17;2.57;;;5.00;90.60;;;;;;5015766;28;20018;-91
2021/05/07 05:29:13;;;;;;;5.00;2.57;;;5.00;90.70;;;;;;4998948;28;20454;-94
2021/05/07 05:31:40;;;;;;;4.40;2.17;;;5.00;90.70;;;;;;5020195;28;20116;-94
2021/05/07 05:34:05;;;;;;;6.00;2.77;;;5.00;90.70;;;;;;5024467;28;20018;-94
2021/05/07 05:36:31;;;;;;;6.10;2.73;;;5.00;90.80;;;;;;5022494;28;20056;-92
2021/05/07 05:38:57;;;;;;;5.07;1.83;;;5.00;90.70;;;;;;5015600;28;20099;-93
2021/05/07 05:41:23;;;;;;;5.07;1.93;;;5.00;90.80;;;;;;4982602;28;20168;-91
2021/05/07 05:43:48;;;;;;;5.03;2.40;;;5.00;90.70;;;;;;5015013;28;20028;-89
2021/05/07 05:46:15;;;;;;;6.00;2.00;;;5.00;90.70;;;;;;4998612;28;20028;-90
2021/05/07 05:48:41;;;;;;;4.17;2.00;;;5.00;90.80;;;;;;5013498;28;20030;-92
2021/05/07 05:51:07;;;;;;;5.33;2.60;;;5.10;90.80;;;;;;5014543;28;20475;-92
2021/05/07 05:53:32;;;;;;;5.40;1.90;;;5.00;90.80;;;;;;5015141;28;20033;-91
2021/05/07 05:55:58;;;;;;;4.80;1.90;;;5.10;90.90;;;;;;5013746;28;20545;-94
2021/05/07 05:58:24;;;;;;;9.20;1.73;;;5.10;90.90;;;;;;5013973;28;20014;-88
2021/05/07 06:00:51;;;;;;;5.30;2.40;;;5.20;90.90;;;;;;5015577;28;20112;-92
2021/05/07 06:03:16;;;;;;;5.50;2.40;;;5.30;90.80;;;;;;5015260;28;20060;-94
2021/05/07 06:05:42;;;;;;;5.13;2.00;;;5.20;90.80;;;;;;5015203;28;20455;-92
2021/05/07 06:08:08;;;;;;;6.00;2.70;;;5.30;90.80;;;;;;5016650;28;20417;-94
2021/05/07 06:10:34;;;;;;;4.70;2.27;;;5.30;90.90;;;;;;4998156;28;20045;-93
2021/05/07 06:12:59;;;;;;;2.57;1.30;;;5.30;90.80;;;;;;5017765;28;20037;-92
2021/05/07 06:15:25;;;;;;;5.47;1.90;;;5.40;90.60;;;;;;4981972;28;20033;-94
2021/05/07 06:17:51;;;;;;;3.27;1.50;;;5.40;90.60;;;;;;4999725;28;20022;-92
2021/05/07 06:20:17;;;;;;;3.60;1.40;;;5.30;90.50;;;;;;4981792;28;20478;-94
2021/05/07 06:22:44;;;;;;;2.93;1.17;;;5.30;90.50;;;;;;5014351;28;20034;-91
2021/05/07 06:25:12;;;;;;;4.73;1.43;;;5.30;90.50;;;;;;5013351;28;20018;-90
2021/05/07 06:27:38;;;;;;;4.83;1.43;;;5.30;90.50;;;;;;5015531;28;20038;-90
2021/05/07 06:30:09;;;;;;;2.37;1.07;;;5.30;90.60;;;;;;4997595;28;20018;-91
2021/05/07 06:32:35;;;;;;;2.53;1.10;;;5.30;90.50;;;;;;5014709;28;20052;-91
2021/05/07 06:35:01;;;;;;;2.70;1.50;;;5.30;90.60;;;;;;5014163;28;20054;-92
2021/05/07 06:37:27;;;;;;;3.33;1.90;;;5.20;90.50;;;;;;5000002;28;20052;-90
2021/05/07 06:39:52;;;;;;;2.53;1.33;;;5.40;90.70;;;;;;5019862;28;20017;-89
2021/05/07 06:42:19;;;;;;;5.00;1.77;;;5.30;90.70;;;;;;5015558;28;20479;-91
2021/05/07 06:44:45;;;;;;;4.60;2.07;;;5.30;90.80;;;;;;5015894;28;20018;-92
2021/05/07 06:47:11;;;;;;;4.20;1.70;;;5.40;91.00;;;;;;4982501;28;20025;-93
2021/05/07 06:49:36;;;;;;;3.77;1.53;;;5.40;91.10;;;;;;5014338;28;20036;-89
2021/05/07 06:52:03;;;;;;;4.30;1.67;;;5.40;91.10;;;;;;4997744;28;20025;-93
2021/05/07 06:54:29;;;;;;;4.17;1.90;;;5.50;91.20;;;;;;5014975;28;20068;-91
2021/05/07 06:56:56;;;;;;;5.70;1.73;;;5.50;91.20;;;;;;5013340;28;20363;-90
2021/05/07 06:59:23;;;;;;;4.33;1.80;;;5.60;91.20;;;;;;5015092;28;20017;-90
2021/05/07 07:01:49;;;;;;;5.57;2.50;;;5.70;91.20;;;;;;5016302;28;20072;-90
2021/05/07 07:04:14;;;;;;;5.70;2.90;;;5.80;91.10;;;;;;4998705;28;20029;-91
2021/05/07 07:06:40;;;;;;;5.57;2.53;;;5.80;91.10;;;;;;4997998;28;20053;-91
2021/05/07 07:09:06;;;;;;;3.90;2.23;;;5.90;91.10;;;;;;4998450;28;20026;-91
2021/05/07 07:11:31;;;;;;;4.83;1.87;;;5.80;91.00;;;;;;5013790;28;20042;-91
2021/05/07 07:13:57;;;;;;;5.63;2.50;;;5.90;91.00;;;;;;5014551;28;20459;-92
2021/05/07 07:16:23;;;;;;;8.67;2.83;;;5.90;90.90;;;;;;4982417;28;20477;-91
2021/05/07 07:18:48;;;;;;;5.57;2.10;;;5.90;90.80;;;;;;4982760;28;20026;-89
2021/05/07 07:21:14;;;;;;;6.60;2.53;;;5.90;90.50;;;;;;4981443;28;20426;-92
2021/05/07 07:23:40;;;;;;;6.03;2.10;;;6.00;90.60;;;;;;4997541;28;20429;-92
2021/05/07 07:26:06;;;;;;;6.57;2.50;;;6.00;90.50;;;;;;4999634;28;20080;-91
2021/05/07 07:28:37;;;;;;;5.13;2.63;;;6.10;90.50;;;;;;4999963;28;20458;-92
2021/05/07 07:31:04;;;;;;;4.57;2.37;;;6.20;90.60;;;;;;5017133;28;20116;-94
2021/05/07 07:33:30;;;;;;;4.97;2.10;;;6.10;90.30;;;;;;5018574;28;20105;-92
2021/05/07 07:35:57;;;;;;;8.10;2.70;;;6.20;90.40;;;;;;5018637;28;20018;-90
2021/05/07 07:38:23;;;;;;;4.50;2.37;;;6.20;90.40;;;;;;5018454;28;20474;-89
2021/05/07 07:40:50;;;;;;;4.83;2.50;;;6.30;90.40;;;;;;5018894;28;20017;-93
2021/05/07 07:43:15;;;;;;;6.03;3.13;;;6.30;90.40;;;;;;4985263;28;20038;-93
2021/05/07 07:45:41;;;;;;;6.40;3.00;;;6.40;90.40;;;;;;5017300;28;20034;-94
2021/05/07 07:48:07;;;;;;;5.40;2.57;;;6.60;90.30;;;;;;5018094;28;20022;-92
2021/05/07 07:50:32;;;;;;;7.17;3.13;;;6.60;90.20;;;;;;5018070;28;20018;-93
2021/05/07 07:52:58;;;;;;;5.97;2.77;;;6.70;90.30;;;;;;5018678;28;20062;-91
2021/05/07 07:55:24;;;;;;;6.20;2.87;;;6.80;90.20;;;;;;4985849;28;20017;-93
2021/05/07 07:57:49;;;;;;;5.43;2.87;;;7.00;90.00;;;;;;5001047;28;20053;-90
2021/05/07 08:00:16;;;;;;;5.87;3.50;;;7.00;90.00;;;;;;4985577;28;20038;-93
2021/05/07 08:02:44;;;;;;;7.43;3.90;;;7.00;89.60;;;;;;4985046;28;20037;-93
2021/05/07 08:05:10;;;;;;;5.83;3.50;;;7.10;89.70;;;;;;5016936;28;20370;-93
2021/05/07 08:07:36;;;;;;;6.40;3.17;;;7.10;89.50;;;;;;5000089;28;20022;-91
2021/05/07 08:10:03;;;;;;;6.30;3.20;;;7.20;89.50;;;;;;5000470;28;20144;-91
2021/05/07 08:12:30;;;;;;;5.97;3.20;;;7.20;88.80;;;;;;5018313;28;20362;-92
2021/05/07 08:14:56;;;;;;;6.60;3.20;;;7.30;88.10;;;;;;5017426;28;20044;-92
2021/05/07 08:17:22;;;;;;;6.90;3.23;;;7.30;88.00;;;;;;5001379;28;20107;-92
2021/05/07 08:19:48;;;;;;;7.50;3.33;;;7.40;88.30;;;;;;5018739;28;20402;-94
2021/05/07 08:22:13;;;;;;;9.20;3.30;;;7.40;88.10;;;;;;5016578;28;20478;-93
2021/05/07 08:24:40;;;;;;;7.90;2.97;;;7.50;86.90;;;;;;5017528;28;20113;-93
2021/05/07 08:27:06;;;;;;;4.80;2.67;;;7.60;87.00;;;;;;5018512;28;20018;-92
2021/05/07 08:29:33;;;;;;;6.27;3.17;;;7.70;86.70;;;;;;5000168;28;20097;-93
2021/05/07 08:32:00;;;;;;;5.23;2.57;;;7.90;85.80;;;;;;5018775;28;20025;-93
2021/05/07 08:34:26;;;;;;;5.23;3.20;;;7.90;85.50;;;;;;5017185;28;20458;-92
2021/05/07 08:36:52;;;;;;;4.33;2.73;;;8.00;85.10;;;;;;5017876;28;20041;-89
2021/05/07 08:39:19;;;;;;;5.57;2.57;;;8.10;84.70;;;;;;5019775;28;20026;-90
2021/05/07 08:41:46;;;;;;;5.87;2.90;;;8.10;84.30;;;;;;5007739;28;20034;-91
2021/05/07 08:44:13;;;;;;;5.10;2.70;;;8.20;84.40;;;;;;5000766;28;20034;-91
2021/05/07 08:46:40;;;;;;;6.20;2.60;;;8.30;83.20;;;;;;4998534;28;20034;-89
2021/05/07 08:49:10;;;;;;;5.10;2.70;;;8.30;83.10;;;;;;4998182;28;20130;-90
2021/05/07 08:51:38;;;;;;;5.00;2.57;;;8.50;83.00;;;;;;4996416;28;20482;-92
2021/05/07 08:54:04;;;;;;;7.73;2.80;;;8.60;82.90;;;;;;4997772;28;20028;-92
2021/05/07 08:56:30;;;;;;;6.03;2.20;;;8.60;82.50;;;;;;4980731;28;20022;-93
2021/05/07 08:58:55;;;;;;;4.80;1.70;;;8.60;81.00;;;;;;4980600;28;20392;-92
2021/05/07 09:01:21;;;;;;;6.53;1.93;;;8.80;79.60;;;;;;4980110;28;20061;-90
2021/05/07 09:03:48;;;;;;;3.83;1.63;;;8.90;78.40;;;;;;4987110;28;20042;-91
2021/05/07 09:06:21;;;;;;;5.20;1.63;;;8.90;77.80;;;;;;4968632;28;20038;-90
2021/05/07 09:08:48;;;;;;;4.90;1.77;;;9.00;75.70;;;;;;4995598;28;20464;-93
2021/05/07 09:11:18;;;;;;;4.17;1.83;;;9.10;75.90;;;;;;4995573;28;20047;-89
2021/05/07 09:13:45;;;;;;;6.73;1.87;;;9.00;74.80;;;;;;4995762;28;20029;-92
2021/05/07 09:16:11;;;;;;;4.20;1.70;;;9.00;74.10;;;;;;5013744;28;20030;-91
2021/05/07 09:18:41;;;;;;;4.00;1.90;;;9.20;73.20;;;;;;4999892;28;20029;-91
2021/05/07 09:21:06;;;;;;;6.27;1.73;;;9.40;74.00;;;;;;5016252;28;20026;-93
2021/05/07 09:23:42;;;;;;;4.40;1.47;;;9.60;73.40;;;;;;5001517;28;20117;-92
2021/05/07 09:26:08;;;;;;;6.70;1.60;;;9.60;72.60;;;;;;5017834;28;20022;-95
2021/05/07 09:28:34;;;;;;;5.80;1.90;;;9.60;72.00;;;;;;5016706;28;20014;-93
2021/05/07 09:31:15;;;;;;;4.80;2.20;;;9.70;71.30;;;;;;5016179;28;20072;-94
2021/05/07 09:33:46;;;;;;;5.33;1.70;;;9.70;70.40;;;;;;4999276;28;20115;-92
2021/05/07 09:36:25;;;;;;;4.43;1.60;;;9.80;70.10;;;;;;5015886;28;20057;-92
2021/05/07 09:38:51;;;;;;;3.57;1.30;;;9.80;69.30;;;;;;5000646;28;20018;-94
2021/05/07 09:41:17;;;;;;;7.30;2.13;;;9.90;68.90;;;;;;4998556;28;20024;-93
2021/05/07 09:43:43;;;;;;;5.33;1.90;;;10.10;69.20;;;;;;4999858;28;20042;-91
2021/05/07 09:46:08;;;;;;;5.07;1.50;;;10.10;69.10;;;;;;5016904;28;20052;-93
2021/05/07 09:48:34;;;;;;;3.50;1.20;;;10.20;68.60;;;;;;5017081;28;20013;-93
2021/05/07 09:51:02;;;;;;;3.53;1.17;;;10.30;65.60;;;;;;5000759;28;20485;-93
2021/05/07 09:53:34;;;;;;;4.23;1.20;;;10.50;65.80;;;;;;5016543;28;20018;-92
2021/05/07 09:56:19;;;;;;;4.17;1.40;;;10.60;65.90;;;;;;5014065;28;20026;-92
2021/05/07 09:58:45;;;;;;;3.50;1.27;;;10.90;66.10;;;;;;5017369;28;20014;-91
2021/05/07 10:01:11;;;;;;;5.97;1.63;;;11.00;65.70;;;;;;5014576;28;20029;-91
2021/05/07 10:03:38;;;;;;;4.53;1.73;;;11.10;65.40;;;;;;5014350;28;20033;-95
2021/05/07 10:06:04;;;;;;;5.87;1.80;;;11.30;64.90;;;;;;5017633;28;20022;-93
2021/05/07 10:08:42;;;;;;;3.13;1.23;;;11.30;63.40;;;;;;5015264;28;20060;-92
2021/05/07 10:11:08;;;;;;;3.97;1.63;;;11.50;63.90;;;;;;5015159;28;20038;-91
2021/05/07 10:13:35;;;;;;;6.28;1.70;;;11.60;64.00;;;;;;4999142;28;20034;-94
2021/05/07 10:16:08;;;;;;;2.40;1.42;;;11.60;64.00;;;;;;5000142;28;20037;-90
2021/05/07 10:18:38;;;;;;;5.15;1.55;;;11.60;63.80;;;;;;5020138;28;20029;-92
2021/05/07 10:21:06;;;;;;;3.50;2.00;;;11.40;63.40;;;;;;5000122;28;20022;-93
2021/05/07 10:23:33;;;;;;;5.77;2.20;;;11.40;64.00;;;;;;5014251;28;20065;-94
2021/05/07 10:26:00;;;;;;;4.60;1.67;;;11.30;64.60;;;;;;4997721;28;20049;-92
2021/05/07 10:28:29;;;;;;;3.97;1.52;;;11.50;65.40;;;;;;5015733;28;20030;-95
2021/05/07 10:31:07;;;;;;;3.63;1.30;;;11.70;65.40;;;;;;5014558;28;20109;-96
2021/05/07 10:33:33;;;;;;;2.97;1.33;;;12.00;64.00;;;;;;5014812;28;20025;-93
2021/05/07 10:35:58;;;;;;;3.17;0.80;;;12.40;63.30;;;;;;4982861;28;20399;-93
2021/05/07 10:38:26;;;;;;;2.67;1.15;;;12.90;61.80;;;;;;5000740;28;20451;-94
2021/05/07 10:41:08;;;;;;;2.70;1.13;;;13.30;59.40;;;;;;5015223;28;20018;-91
2021/05/07 10:43:41;;;;;;;3.67;1.15;;;13.90;59.70;;;;;;5014087;28;20076;-93
2021/05/07 10:46:07;;;;;;;3.13;0.98;;;14.60;58.90;;;;;;5016329;28;20025;-95
2021/05/07 10:48:32;;;;;;;3.70;0.90;;;15.10;57.80;;;;;;5015435;28;20033;-94
2021/05/07 10:51:04;;;;;;;2.95;0.82;;;15.20;56.60;;;;;;5015014;28;20026;-94
2021/05/07 10:53:37;;;;;;;3.80;1.00;;;15.60;55.30;;;;;;5015681;28;20378;-93
2021/05/07 10:56:20;;;;;;;5.50;1.08;;;16.20;54.70;;;;;;5005989;28;20043;-92
2021/05/07 10:58:48;;;;;;;4.82;1.17;;;16.40;52.00;;;;;;5014514;28;20115;-93
2021/05/07 11:01:18;;;;;;;3.80;1.30;;;16.20;51.40;;;;;;5014436;28;20110;-95
2021/05/07 11:03:58;;;;;;;8.32;1.58;;;15.70;51.00;;;;;;5013898;28;20044;-94
2021/05/07 11:06:37;;;;;;;2.83;0.90;;;15.40;50.10;;;;;;5013179;28;20018;-91
2021/05/07 11:09:12;;;;;;;4.32;1.13;;;14.90;50.50;;;;;;5014194;28;20131;-93
2021/05/07 11:11:37;;;;;;;6.05;1.65;;;14.50;51.60;;;;;;5013844;28;20056;-92
2021/05/07 11:14:03;;;;;;;3.97;1.67;;;14.10;51.90;;;;;;5015194;28;20026;-93
2021/05/07 11:16:39;;;;;;;4.63;1.70;;;13.80;52.40;;;;;;4997195;28;20026;-94
2021/05/07 11:19:05;;;;;;;5.38;1.40;;;13.50;53.30;;;;;;5013594;28;20474;-92
2021/05/07 11:21:32;;;;;;;5.63;1.30;;;13.70;54.30;;;;;;5014812;28;20025;-94
2021/05/07 11:23:59;;;;;;;2.97;1.17;;;14.40;54.60;;;;;;5015496;28;20018;-91
2021/05/07 11:26:35;;;;;;;3.10;1.10;;;15.20;53.70;;;;;;5014393;28;20490;-94
2021/05/07 11:29:01;;;;;;;2.75;1.10;;;15.70;52.70;;;;;;5013931;28;20030;-93
2021/05/07 11:31:28;;;;;;;4.78;1.00;;;16.00;51.70;;;;;;5015308;28;20045;-95
2021/05/07 11:33:53;;;;;;;5.35;1.48;;;16.00;49.60;;;;;;5013487;28;20117;-92
2021/05/07 11:36:19;;;;;;;5.38;1.98;;;15.60;48.10;;;;;;5014081;28;20026;-92
2021/05/07 11:38:45;;;;;;;4.13;1.83;;;15.10;49.30;;;;;;5013792;28;20079;-93
2021/05/07 11:41:23;;;;;;;4.38;1.45;;;15.00;50.60;;;;;;5014327;28;20026;-92
2021/05/07 11:43:50;;;;;;;5.88;1.67;;;15.40;51.00;;;;;;5012947;28;20121;-92
2021/05/07 11:46:17;;;;;;;4.88;1.33;;;15.90;49.60;;;;;;5013102;28;20033;-92
2021/05/07 11:48:47;;;;;;;2.25;1.00;;;16.60;50.10;;;;;;4997123;28;20451;-94
2021/05/07 11:51:14;;;;;;;1.85;0.70;;;17.30;47.40;;;;;;5013839;28;20034;-93
2021/05/07 11:53:39;;;;;;;4.93;1.10;;;17.90;46.00;;;;;;5013854;28;20018;-94
2021/05/07 11:56:09;;;;;;;4.53;1.50;;;18.50;45.70;;;;;;4997087;28;20382;-92
2021/05/07 11:58:36;;;;;;;5.20;1.27;;;19.10;44.50;;;;;;4983813;28;20033;-94
2021/05/07 12:01:07;;;;;;;6.38;0.98;;;19.70;43.70;;;;;;5012687;28;20026;-95
2021/05/07 12:03:41;;;;;;;4.38;1.48;;;19.80;43.80;;;;;;5012535;28;20118;-93
2021/05/07 12:06:18;;;;;;;2.92;1.17;;;19.50;41.80;;;;;;5015554;28;20057;-94
2021/05/07 12:08:45;;;;;;;2.95;0.90;;;19.40;40.80;;;;;;5013050;28;20026;-93
2021/05/07 12:11:12;;;;;;;2.53;1.20;;;19.70;41.10;;;;;;4996425;28;20052;-93
2021/05/07 12:13:42;;;;;;;3.67;1.20;;;20.00;40.40;;;;;;5013036;28;20475;-90
2021/05/07 12:16:08;;;;;;;2.92;0.80;;;20.30;39.30;;;;;;4997121;28;20030;-91
2021/05/07 12:18:36;;;;;;;6.35;1.30;;;20.20;37.60;;;;;;5017579;28;20045;-92
2021/05/07 12:21:03;;;;;;;4.45;1.05;;;19.70;37.60;;;;;;5000912;28;20402;-89
2021/05/07 12:23:52;;;;;;;2.55;1.00;;;19.10;38.20;;;;;;5017749;28;20038;-93
2021/05/07 12:26:20;;;;;;;3.05;0.88;;;18.30;37.80;;;;;;5005579;28;20034;-88
2021/05/07 12:28:58;;;;;;;4.32;1.23;;;17.70;38.40;;;;;;5000167;28;20022;-90
2021/05/07 12:31:31;;;;;;;2.75;0.80;;;17.50;39.60;;;;;;4999332;28;20029;-90
2021/05/07 12:33:57;;;;;;;3.85;1.38;;;18.00;40.50;;;;;;5015583;28;20040;-89
2021/05/07 12:36:27;;;;;;;1.88;0.98;;;18.30;39.50;;;;;;4999440;28;20029;-92
2021/05/07 12:38:58;;;;;;;3.70;1.00;;;18.10;38.10;;;;;;5015508;28;20102;-88
2021/05/07 12:41:27;;;;;;;5.00;1.10;;;17.60;37.80;;;;;;4985819;28;20084;-89
2021/05/07 12:43:53;;;;;;;2.40;1.13;;;17.00;37.20;;;;;;5016015;28;20094;-88
2021/05/07 12:46:19;;;;;;;3.70;1.08;;;16.50;38.40;;;;;;4999426;28;20379;-89
2021/05/07 12:48:50;;;;;;;3.13;1.20;;;16.10;39.30;;;;;;4999524;28;20025;-88
2021/05/07 12:51:17;;;;;;;1.55;0.52;;;16.30;39.30;;;;;;5015533;28;20025;-90